CHL2 weather

Hillaton/Kings Aerodrome
Hillaton, Nova Scotia, Canada

Public forecast

Using degrees Celsius for public forecast. Weather courtesy of forecast.io.

METAR (pilot weather report)

Closest report is CFB Greenwood, 23.0 nm (42.7 km) WSW. Retrieved 2019/08/22 03:44 UTC (0 seconds ago):

CYZX 220344Z 13004KT 12SM FEW070 OVC130 20/16 A2992 RMK AC2AC6 SLP131

TAF (pilot weather forecast)

Forecast is more than 12 hours old.

Closest forecast is CFB Greenwood, 23.0 nm (42.7 km) WSW. Retrieved 2019/08/21 00:33 UTC (1 day ago):

TAF TAF CYZX 212330Z 2200/2224 VRB03KT P6SM FEW150 OVC250 FM220300 VRB03KT P6SM BKN080 OVC200 FM220600 12005KT P6SM -SHRA SCT012 OVC020 TEMPO 2206/2211 4SM -SHRA BR BKN012 PROB30 2206/2211 3SM TSRA BR BKN010 OVC020CB FM221100 23008KT 6SM -SHRA -DZ BR SCT008 OVC012 TEMPO 2211/2213 4SM BR BKN008 FM221300 23008KT P6SM BKN015 FM221600 23010G20KT P6SM SCT030 BECMG 2221/2223 24007KT RMK NXT FCST BY 220600Z